createdAt,value
2023-04-12T00:00:12.016Z,6.45
2023-04-12T00:02:44.861Z,5.70
2023-04-12T00:05:14.284Z,6.15
2023-04-12T00:07:46.953Z,6.15
2023-04-12T00:10:15.737Z,5.97
2023-04-12T00:12:44.425Z,5.95
2023-04-12T00:15:13.138Z,5.67
2023-04-12T00:17:43.222Z,5.70
2023-04-12T00:20:12.925Z,5.10
2023-04-12T00:22:42.720Z,5.85
2023-04-12T00:25:12.151Z,5.70
2023-04-12T00:27:40.897Z,5.53
2023-04-12T00:30:10.254Z,5.63
2023-04-12T00:32:38.875Z,5.22
2023-04-12T00:35:45.950Z,6.63
2023-04-12T00:38:17.410Z,5.15
2023-04-12T00:40:46.306Z,5.63
2023-04-12T00:43:19.071Z,5.72
2023-04-12T00:45:48.501Z,5.53
2023-04-12T00:48:17.723Z,6.20
2023-04-12T00:50:48.025Z,5.60
2023-04-12T00:53:17.873Z,6.63
2023-04-12T00:55:47.816Z,5.97
2023-04-12T00:58:17.980Z,5.90
2023-04-12T01:00:53.161Z,5.65
2023-04-12T01:03:23.631Z,5.80
2023-04-12T01:06:05.614Z,5.82
2023-04-12T01:08:42.390Z,5.55
2023-04-12T01:11:16.629Z,5.90
2023-04-12T01:13:54.354Z,5.40
2023-04-12T01:16:29.799Z,5.93
2023-04-12T01:19:03.912Z,6.03
2023-04-12T01:22:01.601Z,5.97
2023-04-12T01:24:44.660Z,5.03
2023-04-12T01:27:13.650Z,5.47
2023-04-12T01:29:44.060Z,6.15
2023-04-12T01:32:13.894Z,5.88
2023-04-12T01:34:43.774Z,5.50
2023-04-12T01:37:12.758Z,5.75
2023-04-12T01:39:41.839Z,5.55
2023-04-12T01:42:10.460Z,5.28
2023-04-12T01:44:39.068Z,6.13
2023-04-12T01:47:09.032Z,5.82
2023-04-12T01:49:49.769Z,6.32
2023-04-12T01:52:22.470Z,5.60
2023-04-12T01:54:53.908Z,6.10
2023-04-12T01:57:23.030Z,6.32
2023-04-12T01:59:52.890Z,6.40
2023-04-12T02:02:23.206Z,6.43
2023-04-12T02:04:53.614Z,6.07
2023-04-12T02:07:23.251Z,5.50
2023-04-12T02:09:51.839Z,6.93
2023-04-12T02:12:23.679Z,5.72
2023-04-12T02:14:52.344Z,6.50
2023-04-12T02:17:22.474Z,6.43
2023-04-12T02:19:51.723Z,6.70
2023-04-12T02:24:49.668Z,5.85
2023-04-12T02:27:20.066Z,6.63
2023-04-12T02:29:48.626Z,6.07
2023-04-12T02:32:17.643Z,6.75
2023-04-12T02:34:51.570Z,6.13
2023-04-12T02:37:24.694Z,6.60
2023-04-12T02:39:56.971Z,6.10
2023-04-12T02:42:27.244Z,5.97
2023-04-12T02:44:56.068Z,6.07
2023-04-12T02:47:28.566Z,6.53
2023-04-12T02:49:59.754Z,6.05
2023-04-12T02:52:30.028Z,6.80
2023-04-12T02:55:10.067Z,6.40
2023-04-12T03:00:12.455Z,6.80
2023-04-12T03:02:48.293Z,7.05
2023-04-12T03:05:24.096Z,7.40
2023-04-12T03:07:53.967Z,9.23
2023-04-12T03:10:28.554Z,9.70
2023-04-12T03:13:06.393Z,9.27
2023-04-12T03:15:38.017Z,7.88
2023-04-12T03:18:07.351Z,14.07
2023-04-12T03:20:47.784Z,14.77
2023-04-12T03:23:17.767Z,11.52
2023-04-12T03:25:50.999Z,11.23
2023-04-12T03:28:40.055Z,9.40
2023-04-12T03:31:10.769Z,7.72
2023-04-12T03:33:45.258Z,6.95
2023-04-12T03:36:23.745Z,8.57
2023-04-12T03:39:01.567Z,7.10
2023-04-12T03:41:33.345Z,8.13
2023-04-12T03:44:05.866Z,7.63
2023-04-12T03:46:36.623Z,9.55
2023-04-12T03:49:09.969Z,8.25
2023-04-12T03:51:43.144Z,8.82
2023-04-12T03:54:13.083Z,8.93
2023-04-12T03:56:59.519Z,8.20
2023-04-12T03:59:48.372Z,7.78
2023-04-12T04:02:21.694Z,7.20
2023-04-12T04:04:53.879Z,8.75
2023-04-12T04:07:31.894Z,7.22
2023-04-12T04:10:01.745Z,7.85
2023-04-12T04:12:36.063Z,6.85
2023-04-12T04:15:06.306Z,7.10
2023-04-12T04:17:35.752Z,7.28
2023-04-12T04:20:07.010Z,7.30
2023-04-12T04:22:40.224Z,7.47
2023-04-12T04:25:10.585Z,6.75
2023-04-12T04:27:45.151Z,8.18
2023-04-12T04:30:17.090Z,7.30
2023-04-12T04:32:48.432Z,7.25
2023-04-12T04:35:18.540Z,6.85
2023-04-12T04:38:03.347Z,7.13
2023-04-12T04:40:34.241Z,6.90
2023-04-12T04:43:08.223Z,7.22
2023-04-12T04:45:41.521Z,7.15
2023-04-12T04:48:10.730Z,7.93
2023-04-12T04:50:39.315Z,8.63
2023-04-12T04:53:09.370Z,6.93
2023-04-12T04:55:38.041Z,7.82
2023-04-12T04:58:07.428Z,6.97
2023-04-12T05:00:36.828Z,7.55
2023-04-12T05:03:05.788Z,7.65
2023-04-12T05:05:34.753Z,6.28
2023-04-12T05:08:10.966Z,7.68
2023-04-12T05:10:40.051Z,7.65
2023-04-12T05:13:10.017Z,7.17
2023-04-12T05:15:42.086Z,7.57
2023-04-12T05:18:11.038Z,7.38
2023-04-12T05:20:40.209Z,9.15
2023-04-12T05:23:10.427Z,7.85
2023-04-12T05:25:44.892Z,8.20
2023-04-12T05:28:14.442Z,7.63
2023-04-12T05:30:43.822Z,7.25
2023-04-12T05:33:14.965Z,8.25
2023-04-12T05:35:47.491Z,7.65
2023-04-12T05:38:17.719Z,7.30
2023-04-12T05:40:51.207Z,7.88
2023-04-12T05:43:24.177Z,6.93
2023-04-12T05:45:52.928Z,7.80
2023-04-12T05:48:24.718Z,7.05
2023-04-12T05:50:56.294Z,7.20
2023-04-12T05:53:29.926Z,7.75
2023-04-12T05:56:02.112Z,7.35
2023-04-12T05:58:31.519Z,6.93
2023-04-12T06:01:00.886Z,7.32
2023-04-12T06:03:30.779Z,7.15
2023-04-12T06:06:06.438Z,7.18
2023-04-12T06:08:36.705Z,7.20
2023-04-12T06:11:05.775Z,7.22
2023-04-12T06:13:34.319Z,7.25
2023-04-12T06:16:03.732Z,6.13
2023-04-12T06:18:32.560Z,6.78
2023-04-12T06:21:01.638Z,6.82
2023-04-12T06:26:00.984Z,6.82
2023-04-12T06:28:30.560Z,6.63
2023-04-12T06:30:59.202Z,7.50
2023-04-12T06:33:33.945Z,7.30
2023-04-12T06:38:31.868Z,7.15
2023-04-12T06:41:01.953Z,7.20
2023-04-12T06:43:30.722Z,7.50
2023-04-12T06:46:00.272Z,7.53
2023-04-12T06:48:28.983Z,7.65
2023-04-12T06:50:57.596Z,7.50
2023-04-12T06:53:26.339Z,6.90
2023-04-12T06:55:54.990Z,7.90
2023-04-12T06:58:25.162Z,7.77
2023-04-12T07:00:53.872Z,7.65
2023-04-12T07:03:24.656Z,7.78
2023-04-12T07:05:57.116Z,8.25
2023-04-12T07:08:27.455Z,7.93
2023-04-12T07:10:57.442Z,8.73
2023-04-12T07:13:27.515Z,8.00
2023-04-12T07:15:56.316Z,8.50
2023-04-12T07:18:25.449Z,7.60
2023-04-12T07:20:57.154Z,7.57
2023-04-12T07:23:27.484Z,7.75
2023-04-12T07:26:01.087Z,7.63
2023-04-12T07:28:31.264Z,7.30
2023-04-12T07:31:00.110Z,7.47
2023-04-12T07:33:28.855Z,7.40
2023-04-12T07:35:57.603Z,7.38
2023-04-12T07:38:26.128Z,6.68
2023-04-12T07:40:55.695Z,6.57
2023-04-12T07:43:24.402Z,6.82
2023-04-12T07:45:56.415Z,7.07
2023-04-12T07:48:25.160Z,6.85
2023-04-12T07:50:53.886Z,6.32
2023-04-12T07:53:23.846Z,6.10
2023-04-12T07:55:52.771Z,6.05
2023-04-12T07:58:22.208Z,6.63
2023-04-12T08:00:51.200Z,6.63
2023-04-12T08:03:21.425Z,6.63
2023-04-12T08:05:53.825Z,6.50
2023-04-12T08:08:23.193Z,6.15
2023-04-12T08:10:54.149Z,6.40
2023-04-12T08:13:22.823Z,5.35
2023-04-12T08:15:51.509Z,6.30
2023-04-12T08:18:21.625Z,6.07
2023-04-12T08:20:50.262Z,6.57
2023-04-12T08:23:19.937Z,6.33
2023-04-12T08:25:48.633Z,6.00
2023-04-12T08:28:17.177Z,6.55
2023-04-12T08:30:47.237Z,6.03
2023-04-12T08:33:16.147Z,5.72
2023-04-12T08:35:46.313Z,5.90
2023-04-12T08:38:14.991Z,5.90
2023-04-12T08:40:46.640Z,6.20
2023-04-12T08:43:15.920Z,5.95
2023-04-12T08:45:44.795Z,6.75
2023-04-12T08:48:13.919Z,6.53
2023-04-12T08:50:50.540Z,5.78
2023-04-12T08:53:19.442Z,5.88
2023-04-12T08:55:48.023Z,5.80
2023-04-12T08:58:17.351Z,7.70
2023-04-12T09:00:47.165Z,5.93
2023-04-12T09:03:16.015Z,5.72
2023-04-12T09:05:46.217Z,5.85
2023-04-12T09:08:14.918Z,5.68
2023-04-12T09:10:43.741Z,5.63
2023-04-12T09:13:12.450Z,5.45
2023-04-12T09:15:50.519Z,5.65
2023-04-12T09:18:20.467Z,5.70
2023-04-12T09:20:50.546Z,5.55
2023-04-12T09:23:21.131Z,5.07
2023-04-12T09:25:52.811Z,6.82
2023-04-12T09:28:23.869Z,14.48
2023-04-12T09:30:53.967Z,15.05
2023-04-12T09:33:23.933Z,12.35
2023-04-12T09:36:02.593Z,10.20
2023-04-12T09:38:31.679Z,19.83
2023-04-12T09:41:20.213Z,20.08
2023-04-12T09:43:50.146Z,29.35
2023-04-12T09:46:18.799Z,34.33
2023-04-12T09:48:52.527Z,31.45
2023-04-12T09:51:30.422Z,26.75
2023-04-12T09:54:01.146Z,177.63
2023-04-12T09:56:32.282Z,277.70
2023-04-12T09:59:04.408Z,28.25
2023-04-12T10:01:37.124Z,103.53
2023-04-12T10:04:09.061Z,46.40
2023-04-12T10:06:39.282Z,17.02
2023-04-12T10:09:09.051Z,34.75
2023-04-12T10:11:42.179Z,6.53
2023-04-12T10:14:12.149Z,22.85
2023-04-12T10:16:43.202Z,31.48
2023-04-12T10:19:14.485Z,78.82
2023-04-12T10:21:44.489Z,114.82
2023-04-12T10:24:13.208Z,39.85
2023-04-12T10:26:44.434Z,47.75
2023-04-12T10:29:29.236Z,42.88
2023-04-12T10:31:59.207Z,84.10
2023-04-12T10:34:31.575Z,48.33
2023-04-12T10:37:03.005Z,24.90
2023-04-12T10:39:42.488Z,70.65
2023-04-12T10:42:19.040Z,71.93
2023-04-12T10:44:49.088Z,121.47
2023-04-12T10:47:18.109Z,76.30
2023-04-12T10:50:19.921Z,93.78
2023-04-12T10:53:27.906Z,47.03
2023-04-12T10:55:57.113Z,78.15
2023-04-12T10:59:00.154Z,58.30
2023-04-12T11:01:35.285Z,27.42
2023-04-12T11:04:25.833Z,22.02
2023-04-12T11:07:11.825Z,35.05
2023-04-12T11:09:44.949Z,19.48
2023-04-12T11:12:18.892Z,23.10
2023-04-12T11:14:49.220Z,30.90
2023-04-12T11:17:25.463Z,26.88
2023-04-12T11:19:57.478Z,29.70
2023-04-12T11:22:28.966Z,40.00
2023-04-12T11:25:01.119Z,27.88
2023-04-12T11:27:31.959Z,23.55
2023-04-12T11:30:02.094Z,18.40
2023-04-12T11:32:34.239Z,16.73
2023-04-12T11:35:03.190Z,15.25
2023-04-12T11:37:36.164Z,8.63
2023-04-12T11:40:07.333Z,8.27
2023-04-12T11:42:36.262Z,5.82
2023-04-12T11:45:13.395Z,4.22
2023-04-12T11:47:44.847Z,4.88
2023-04-12T11:52:42.401Z,5.93
2023-04-12T11:55:12.618Z,6.00
2023-04-12T11:57:41.388Z,7.22
2023-04-12T12:00:11.085Z,6.25
2023-04-12T12:02:49.430Z,9.55
2023-04-12T12:05:25.321Z,7.25
2023-04-12T12:07:54.758Z,8.02
2023-04-12T12:13:14.448Z,5.95
2023-04-12T12:15:46.419Z,7.32
2023-04-12T12:18:15.229Z,7.20
2023-04-12T12:20:48.807Z,6.40
2023-04-12T12:23:30.553Z,5.57
2023-04-12T12:26:14.953Z,5.88
2023-04-12T12:28:52.622Z,6.43
2023-04-12T12:31:22.904Z,6.20
2023-04-12T12:33:55.536Z,4.78
2023-04-12T12:36:32.548Z,5.30
2023-04-12T12:39:07.528Z,4.60
2023-04-12T12:41:37.940Z,6.13
2023-04-12T12:44:08.468Z,5.68
2023-04-12T12:46:51.888Z,6.57
2023-04-12T12:49:22.553Z,6.07
2023-04-12T12:51:54.329Z,5.50
2023-04-12T12:54:39.342Z,5.60
2023-04-12T12:57:11.384Z,5.07
2023-04-12T12:59:40.124Z,5.82
2023-04-12T13:02:09.392Z,5.88
2023-04-12T13:04:38.425Z,90.55
2023-04-12T13:07:09.368Z,5.85
2023-04-12T13:09:37.994Z,6.07
2023-04-12T13:12:06.783Z,5.80
2023-04-12T13:14:36.840Z,5.60
2023-04-12T13:17:06.982Z,4.68
2023-04-12T13:19:35.594Z,6.60
2023-04-12T13:22:04.353Z,6.10
2023-04-12T13:24:33.073Z,5.70
2023-04-12T13:27:02.871Z,5.82
2023-04-12T13:29:31.560Z,5.07
2023-04-12T13:32:02.102Z,5.13
2023-04-12T13:34:35.606Z,4.85
2023-04-12T13:37:04.682Z,4.97
2023-04-12T13:39:34.743Z,5.47
2023-04-12T13:42:03.436Z,4.60
2023-04-12T13:44:32.134Z,15.85
2023-04-12T13:47:02.213Z,5.68
2023-04-12T13:49:31.019Z,4.57
2023-04-12T13:51:59.657Z,4.55
2023-04-12T13:54:28.521Z,4.47
2023-04-12T13:56:57.834Z,4.80
2023-04-12T13:59:26.849Z,3.85
2023-04-12T14:01:55.888Z,4.40
2023-04-12T14:06:58.963Z,4.15
2023-04-12T14:09:29.225Z,4.13
2023-04-12T14:11:59.131Z,4.88
2023-04-12T14:14:29.726Z,4.85
2023-04-12T14:16:58.503Z,5.30
2023-04-12T14:19:28.923Z,4.72
2023-04-12T14:21:57.636Z,4.20
2023-04-12T14:24:26.827Z,4.68
2023-04-12T14:29:27.632Z,4.15
2023-04-12T14:31:56.330Z,4.75
2023-04-12T14:34:24.948Z,4.75
2023-04-12T14:36:55.020Z,5.15
2023-04-12T14:39:24.859Z,4.75
2023-04-12T14:41:53.460Z,8.13
2023-04-12T14:44:24.635Z,4.78
2023-04-12T14:46:54.857Z,4.70
2023-04-12T14:49:23.546Z,4.15
2023-04-12T14:51:52.109Z,5.43
2023-04-12T14:54:22.787Z,4.00
2023-04-12T14:56:54.933Z,4.43
2023-04-12T14:59:24.391Z,4.43
2023-04-12T15:01:53.547Z,4.40
2023-04-12T15:04:22.675Z,5.90
2023-04-12T15:06:52.238Z,4.20
2023-04-12T15:09:24.461Z,25.75
2023-04-12T15:12:01.404Z,5.47
2023-04-12T15:14:36.744Z,4.10
2023-04-12T15:17:08.474Z,4.20
2023-04-12T15:19:37.871Z,4.28
2023-04-12T15:22:06.563Z,4.93
2023-04-12T15:24:37.945Z,4.18
2023-04-12T15:27:07.153Z,4.47
2023-04-12T15:32:13.221Z,4.40
2023-04-12T15:34:42.014Z,4.50
2023-04-12T15:37:11.153Z,5.03
2023-04-12T15:42:11.345Z,4.28
2023-04-12T15:44:43.992Z,5.03
2023-04-12T15:47:15.178Z,5.03
2023-04-12T15:49:44.076Z,5.22
2023-04-12T15:52:13.183Z,4.85
2023-04-12T15:57:16.070Z,16.27
2023-04-12T15:59:47.386Z,12.07
2023-04-12T16:02:19.456Z,10.55
2023-04-12T16:04:50.687Z,8.13
2023-04-12T16:07:22.597Z,6.28
2023-04-12T16:09:53.015Z,7.53
2023-04-12T16:12:22.024Z,10.55
2023-04-12T16:14:53.214Z,7.28
2023-04-12T16:17:24.955Z,12.23
2023-04-12T16:19:54.614Z,8.13
2023-04-12T16:22:26.439Z,7.65
2023-04-12T16:24:56.742Z,6.15
2023-04-12T16:27:29.545Z,6.50
2023-04-12T16:30:01.087Z,5.68
2023-04-12T16:32:33.116Z,5.32
2023-04-12T16:35:02.007Z,5.55
2023-04-12T16:37:33.599Z,8.25
2023-04-12T16:40:06.967Z,7.32
2023-04-12T16:42:40.770Z,6.85
2023-04-12T16:45:16.987Z,7.85
2023-04-12T16:47:48.084Z,7.85
2023-04-12T16:50:17.046Z,8.73
2023-04-12T16:52:46.734Z,8.77
2023-04-12T16:55:19.284Z,7.47
2023-04-12T16:57:49.994Z,7.15
2023-04-12T17:00:21.249Z,6.20
2023-04-12T17:02:52.285Z,6.25
2023-04-12T17:05:21.994Z,6.75
2023-04-12T17:07:54.170Z,7.18
2023-04-12T17:10:25.816Z,6.63
2023-04-12T17:12:55.994Z,5.88
2023-04-12T17:15:27.108Z,6.78
2023-04-12T17:18:02.792Z,6.70
2023-04-12T17:20:32.518Z,6.40
2023-04-12T17:23:03.383Z,6.97
2023-04-12T17:25:33.888Z,6.88
2023-04-12T17:28:03.432Z,7.68
2023-04-12T17:30:32.349Z,7.50
2023-04-12T17:33:13.513Z,6.55
2023-04-12T17:35:42.931Z,6.78
2023-04-12T17:38:11.823Z,5.97
2023-04-12T17:40:45.016Z,7.22
2023-04-12T17:43:13.843Z,5.90
2023-04-12T17:45:45.685Z,6.70
2023-04-12T17:48:16.079Z,6.18
2023-04-12T17:50:47.277Z,8.88
2023-04-12T17:53:16.001Z,7.88
2023-04-12T17:55:46.648Z,7.97
2023-04-12T17:58:21.280Z,6.57
2023-04-12T18:00:52.126Z,8.55
2023-04-12T18:03:20.990Z,8.70
2023-04-12T18:05:49.766Z,8.05
2023-04-12T18:08:18.701Z,10.32
2023-04-12T18:10:49.048Z,10.38
2023-04-12T18:13:18.865Z,9.00
2023-04-12T18:15:47.586Z,7.45
2023-04-12T18:18:16.297Z,513.45
2023-04-12T18:20:46.915Z,473.77
2023-04-12T18:23:16.647Z,358.83
2023-04-12T18:25:45.561Z,159.50
2023-04-12T18:28:18.536Z,36.70
2023-04-12T18:30:47.678Z,15.85
2023-04-12T18:33:16.621Z,11.43
2023-04-12T18:35:45.957Z,10.20
2023-04-12T18:38:14.692Z,8.30
2023-04-12T18:40:43.456Z,7.57
2023-04-12T18:43:14.178Z,8.48
2023-04-12T18:45:46.877Z,28.40
2023-04-12T18:48:15.921Z,17.73
2023-04-12T18:50:47.422Z,21.45
2023-04-12T18:53:16.498Z,37.28
2023-04-12T18:55:50.730Z,40.63
2023-04-12T18:58:19.640Z,23.33
2023-04-12T19:00:50.821Z,22.45
2023-04-12T19:03:19.561Z,21.90
2023-04-12T19:05:48.274Z,20.40
2023-04-12T19:08:19.451Z,17.23
2023-04-12T19:10:48.270Z,15.93
2023-04-12T19:13:16.952Z,14.30
2023-04-12T19:15:46.096Z,13.07
2023-04-12T19:18:16.188Z,14.13
2023-04-12T19:20:44.842Z,11.82
2023-04-12T19:23:13.940Z,11.75
2023-04-12T19:25:42.634Z,10.95
2023-04-12T19:28:12.193Z,10.55
2023-04-12T19:30:41.395Z,10.07
2023-04-12T19:33:10.122Z,10.50
2023-04-12T19:35:40.471Z,9.85
2023-04-12T19:38:11.158Z,9.25
2023-04-12T19:40:43.149Z,8.75
2023-04-12T19:43:15.680Z,9.40
2023-04-12T19:45:47.124Z,9.55
2023-04-12T19:48:17.196Z,7.72
2023-04-12T19:50:49.806Z,8.45
2023-04-12T19:53:21.058Z,7.55
2023-04-12T19:55:53.571Z,8.57
2023-04-12T19:58:25.604Z,8.80
2023-04-12T20:00:56.826Z,7.60
2023-04-12T20:03:26.116Z,9.38
2023-04-12T20:05:58.307Z,8.05
2023-04-12T20:08:29.606Z,7.00
2023-04-12T20:10:58.502Z,7.47
2023-04-12T20:13:28.745Z,7.57
2023-04-12T20:16:02.782Z,7.32
2023-04-12T20:18:31.896Z,8.75
2023-04-12T20:21:06.281Z,7.85
2023-04-12T20:23:35.104Z,8.27
2023-04-12T20:26:04.463Z,8.70
2023-04-12T20:28:33.156Z,7.75
2023-04-12T20:31:01.942Z,7.18
2023-04-12T20:33:30.758Z,7.47
2023-04-12T20:36:01.421Z,7.07
2023-04-12T20:38:33.484Z,7.32
2023-04-12T20:41:05.370Z,7.88
2023-04-12T20:43:36.405Z,7.20
2023-04-12T20:46:10.096Z,7.35
2023-04-12T20:48:39.062Z,7.75
2023-04-12T20:51:12.021Z,8.60
2023-04-12T20:53:43.789Z,6.68
2023-04-12T20:56:13.339Z,6.97
2023-04-12T20:58:42.844Z,8.40
2023-04-12T21:01:17.495Z,6.93
2023-04-12T21:03:51.539Z,7.85
2023-04-12T21:06:20.484Z,6.95
2023-04-12T21:08:51.470Z,7.88
2023-04-12T21:11:20.182Z,7.53
2023-04-12T21:13:52.664Z,7.18
2023-04-12T21:16:21.770Z,6.90
2023-04-12T21:18:53.463Z,7.15
2023-04-12T21:21:23.706Z,6.68
2023-04-12T21:23:54.160Z,6.97
2023-04-12T21:26:22.932Z,6.43
2023-04-12T21:28:51.550Z,7.85
2023-04-12T21:31:20.246Z,7.28
2023-04-12T21:33:50.292Z,6.30
2023-04-12T21:36:19.904Z,6.25
2023-04-12T21:38:49.298Z,6.93
2023-04-12T21:41:19.309Z,6.75
2023-04-12T21:43:49.063Z,6.70
2023-04-12T21:46:28.001Z,6.47
2023-04-12T21:48:58.440Z,6.47
2023-04-12T21:51:35.238Z,6.03
2023-04-12T21:54:08.640Z,6.47
2023-04-12T21:56:44.520Z,6.80
2023-04-12T21:59:24.447Z,6.95
2023-04-12T22:01:55.210Z,7.70
2023-04-12T22:04:32.956Z,6.78
2023-04-12T22:07:04.034Z,7.28
2023-04-12T22:09:35.948Z,7.45
2023-04-12T22:12:08.919Z,7.75
2023-04-12T22:14:38.371Z,5.75
2023-04-12T22:19:36.572Z,5.82
2023-04-12T22:22:05.361Z,6.47
2023-04-12T22:24:36.494Z,5.40
2023-04-12T22:27:05.614Z,5.40
2023-04-12T22:29:37.887Z,5.30
2023-04-12T22:32:07.112Z,6.40
2023-04-12T22:34:38.654Z,5.95
2023-04-12T22:37:08.710Z,5.97
2023-04-12T22:39:37.901Z,5.40
2023-04-12T22:42:06.723Z,5.72
2023-04-12T22:44:38.520Z,5.03
2023-04-12T22:47:07.751Z,5.53
2023-04-12T22:49:46.480Z,5.53
2023-04-12T22:52:15.245Z,5.50
2023-04-12T22:54:43.984Z,6.40
2023-04-12T22:57:12.803Z,5.27
2023-04-12T22:59:42.947Z,5.35
2023-04-12T23:02:12.271Z,6.65
2023-04-12T23:04:49.274Z,5.97
2023-04-12T23:07:18.143Z,6.18
2023-04-12T23:09:47.449Z,6.53
2023-04-12T23:12:16.213Z,6.18
2023-04-12T23:14:47.988Z,5.70
2023-04-12T23:17:20.885Z,5.70
2023-04-12T23:19:51.944Z,6.35
2023-04-12T23:22:48.598Z,6.03
2023-04-12T23:25:23.375Z,5.78
2023-04-12T23:27:55.512Z,5.55
2023-04-12T23:32:58.609Z,5.68
2023-04-12T23:35:29.844Z,5.55
2023-04-12T23:37:58.602Z,6.18
2023-04-12T23:40:27.441Z,4.65
2023-04-12T23:42:57.616Z,6.80
2023-04-12T23:45:27.852Z,5.65
2023-04-12T23:47:56.562Z,5.88
2023-04-12T23:50:25.396Z,6.60
2023-04-12T23:52:54.164Z,6.15
2023-04-12T23:55:25.704Z,6.53
2023-04-12T23:57:54.607Z,6.03
